createdAt,value
2023-03-25T00:00:57.739Z,73.95
2023-03-25T00:03:26.414Z,74.13
2023-03-25T00:05:54.550Z,74.70
2023-03-25T00:08:22.865Z,74.55
2023-03-25T00:10:54.959Z,74.25
2023-03-25T00:13:23.588Z,74.61
2023-03-25T00:15:53.438Z,74.72
2023-03-25T00:18:22.765Z,74.92
2023-03-25T00:20:51.296Z,74.92
2023-03-25T00:23:20.447Z,74.69
2023-03-25T00:25:49.655Z,74.85
2023-03-25T00:28:19.226Z,75.02
2023-03-25T00:30:47.374Z,75.44
2023-03-25T00:33:16.598Z,75.21
2023-03-25T00:35:45.080Z,75.63
2023-03-25T00:38:13.394Z,75.49
2023-03-25T00:40:41.774Z,75.83
2023-03-25T00:43:11.865Z,75.57
2023-03-25T00:45:41.243Z,75.79
2023-03-25T00:48:09.203Z,76.30
2023-03-25T00:50:37.117Z,76.64
2023-03-25T00:53:04.951Z,76.97
2023-03-25T00:55:33.043Z,77.50
2023-03-25T00:58:01.063Z,77.56
2023-03-25T01:00:29.020Z,78.17
2023-03-25T01:02:58.455Z,78.35
2023-03-25T01:05:26.581Z,78.35
2023-03-25T01:07:55.474Z,78.29
2023-03-25T01:10:23.755Z,78.40
2023-03-25T01:12:51.882Z,78.59
2023-03-25T01:15:19.726Z,78.67
2023-03-25T01:17:48.336Z,78.82
2023-03-25T01:20:17.742Z,79.48
2023-03-25T01:22:46.255Z,79.66
2023-03-25T01:25:14.172Z,79.74
2023-03-25T01:27:42.030Z,79.59
2023-03-25T01:30:11.445Z,79.59
2023-03-25T01:32:39.548Z,79.40
2023-03-25T01:35:08.283Z,79.46
2023-03-25T01:37:38.740Z,79.19
2023-03-25T01:40:10.419Z,79.30
2023-03-25T01:42:38.408Z,79.06
2023-03-25T01:45:17.129Z,79.19
2023-03-25T01:47:45.672Z,79.27
2023-03-25T01:50:15.252Z,79.30
2023-03-25T01:52:46.915Z,79.55
2023-03-25T01:55:15.454Z,79.42
2023-03-25T01:57:46.346Z,79.38
2023-03-25T02:00:16.628Z,78.97
2023-03-25T02:02:45.652Z,79.14
2023-03-25T02:05:21.483Z,79.19
2023-03-25T02:07:51.095Z,79.03
2023-03-25T02:10:20.527Z,78.93
2023-03-25T02:12:48.593Z,78.99
2023-03-25T02:15:18.956Z,79.02
2023-03-25T02:18:11.873Z,78.82
2023-03-25T02:21:08.310Z,79.09
2023-03-25T02:24:05.936Z,79.05
2023-03-25T02:27:14.543Z,78.88
2023-03-25T02:30:07.129Z,78.89
2023-03-25T02:33:12.971Z,78.44
2023-03-25T02:35:58.617Z,78.48
2023-03-25T02:38:40.511Z,78.66
2023-03-25T02:41:14.967Z,78.59
2023-03-25T02:43:51.901Z,78.58
2023-03-25T02:46:20.838Z,79.01
2023-03-25T02:48:55.203Z,78.72
2023-03-25T02:51:28.327Z,78.25
2023-03-25T02:54:01.071Z,78.49
2023-03-25T02:56:32.806Z,78.42
2023-03-25T02:59:03.955Z,78.51
2023-03-25T03:01:34.909Z,78.36
2023-03-25T03:04:03.634Z,78.40
2023-03-25T03:06:33.997Z,78.45
2023-03-25T03:09:27.280Z,78.50
2023-03-25T03:12:09.758Z,78.34
2023-03-25T03:14:57.254Z,78.55
2023-03-25T03:17:33.241Z,78.67
2023-03-25T03:20:07.581Z,78.47
2023-03-25T03:22:43.698Z,78.26
2023-03-25T03:25:21.885Z,78.29
2023-03-25T03:27:55.076Z,77.38
2023-03-25T03:30:29.900Z,76.90
2023-03-25T03:33:04.094Z,76.09
2023-03-25T03:35:38.411Z,74.62
2023-03-25T03:38:11.670Z,73.98
2023-03-25T03:40:46.131Z,73.16
2023-03-25T03:43:19.484Z,73.07
2023-03-25T03:45:51.480Z,72.60
2023-03-25T03:48:24.914Z,71.05
2023-03-25T03:50:56.778Z,70.00
2023-03-25T03:53:31.069Z,69.72
2023-03-25T03:56:04.957Z,70.14
2023-03-25T03:58:36.236Z,69.46
2023-03-25T04:01:10.782Z,68.61
2023-03-25T05:55:57.610Z,64.85
2023-03-25T05:58:26.127Z,64.83
2023-03-25T06:00:54.602Z,64.51
2023-03-25T06:03:26.376Z,63.93
2023-03-25T06:05:54.575Z,64.05
2023-03-25T06:08:26.302Z,63.50
2023-03-25T06:10:58.387Z,63.85
2023-03-25T06:13:27.984Z,63.77
2023-03-25T06:15:57.373Z,63.74
2023-03-25T06:18:25.786Z,64.49
2023-03-25T06:20:57.692Z,64.17
2023-03-25T06:23:26.497Z,64.65
2023-03-25T06:25:55.079Z,65.16
2023-03-25T06:28:23.761Z,64.96
2023-03-25T06:30:53.018Z,64.50
2023-03-25T06:33:42.609Z,64.89
2023-03-25T06:36:11.427Z,64.17
2023-03-25T06:38:39.736Z,62.97
2023-03-25T06:41:11.326Z,62.43
2023-03-25T06:43:40.030Z,61.95
2023-03-25T06:46:27.704Z,61.42
2023-03-25T06:49:11.682Z,61.45
2023-03-25T06:51:39.550Z,61.23
2023-03-25T06:54:07.415Z,61.18
2023-03-25T06:56:35.544Z,60.86
2023-03-25T06:59:05.250Z,60.87
2023-03-25T07:01:34.495Z,60.92
2023-03-25T07:04:02.334Z,60.44
2023-03-25T07:06:30.443Z,60.54
2023-03-25T07:08:58.336Z,59.86
2023-03-25T07:11:28.156Z,59.81
2023-03-25T07:13:56.402Z,59.71
2023-03-25T07:16:26.848Z,59.34
2023-03-25T07:18:56.782Z,59.26
2023-03-25T07:21:24.741Z,59.47
2023-03-25T07:23:52.981Z,59.60
2023-03-25T07:26:20.810Z,59.41
2023-03-25T07:28:48.691Z,59.13
2023-03-25T07:31:17.519Z,59.17
2023-03-25T07:33:45.498Z,59.18
2023-03-25T07:36:15.237Z,58.83
2023-03-25T07:38:44.316Z,58.67
2023-03-25T07:41:14.670Z,58.85
2023-03-25T07:43:55.324Z,58.70
2023-03-25T07:46:27.896Z,59.10
2023-03-25T07:48:56.118Z,59.02
2023-03-25T07:51:25.271Z,59.06
2023-03-25T07:53:53.326Z,59.67
2023-03-25T07:56:21.202Z,60.20
2023-03-25T07:58:49.767Z,60.34
2023-03-25T08:01:17.852Z,60.00
2023-03-25T08:03:45.764Z,60.35
2023-03-25T08:06:13.680Z,59.85
2023-03-25T08:08:43.016Z,59.92
2023-03-25T08:11:11.280Z,58.79
2023-03-25T08:13:39.499Z,58.16
2023-03-25T08:16:12.803Z,58.58
2023-03-25T08:18:45.117Z,57.64
2023-03-25T08:21:14.030Z,57.29
2023-03-25T08:23:44.620Z,57.90
2023-03-25T08:26:12.496Z,57.63
2023-03-25T08:28:40.282Z,57.05
2023-03-25T08:31:09.433Z,56.12
2023-03-25T08:33:41.091Z,55.68
2023-03-25T08:36:13.930Z,56.27
2023-03-25T08:38:43.382Z,55.45
2023-03-25T08:41:11.351Z,55.60
2023-03-25T08:43:39.461Z,55.68
2023-03-25T08:46:07.436Z,55.39
2023-03-25T08:48:35.529Z,55.37
2023-03-25T08:51:04.079Z,54.47
2023-03-25T08:53:32.047Z,54.09
2023-03-25T08:56:01.244Z,54.39
2023-03-25T08:58:29.142Z,54.40
2023-03-25T09:00:58.552Z,55.02
2023-03-25T09:03:28.088Z,54.69
2023-03-25T09:05:56.055Z,54.61
2023-03-25T09:08:24.081Z,53.93
2023-03-25T09:10:51.987Z,54.31
2023-03-25T09:13:21.206Z,54.30
2023-03-25T09:15:49.383Z,53.38
2023-03-25T09:18:17.633Z,53.29
2023-03-25T09:20:47.701Z,54.09
2023-03-25T09:23:16.201Z,53.26
2023-03-25T09:25:44.216Z,52.19
2023-03-25T09:28:12.111Z,51.48
2023-03-25T09:30:41.295Z,51.42
2023-03-25T09:33:09.185Z,50.07
2023-03-25T09:35:37.097Z,50.65
2023-03-25T09:38:05.726Z,50.90
2023-03-25T09:40:33.586Z,50.08
2023-03-25T09:43:08.806Z,50.42
2023-03-25T09:45:38.870Z,50.90
2023-03-25T09:48:18.891Z,51.16
2023-03-25T09:50:48.589Z,51.81
2023-03-25T09:53:26.880Z,51.07
2023-03-25T09:55:55.193Z,50.98
2023-03-25T09:58:31.058Z,51.37
2023-03-25T10:01:05.786Z,51.92
2023-03-25T10:03:43.795Z,51.33
2023-03-25T10:06:18.733Z,50.52
2023-03-25T10:09:01.722Z,50.35
2023-03-25T10:11:38.930Z,48.71
2023-03-25T10:14:12.196Z,48.64
2023-03-25T10:16:52.599Z,49.05
2023-03-25T10:19:36.558Z,47.60
2023-03-25T10:22:06.560Z,45.82
2023-03-25T10:24:40.189Z,46.02
2023-03-25T10:27:16.756Z,46.35
2023-03-25T10:29:48.890Z,47.10
2023-03-25T10:32:19.877Z,47.19
2023-03-25T10:34:52.894Z,45.18
2023-03-25T10:37:28.933Z,45.48
2023-03-25T10:40:00.519Z,45.99
2023-03-25T10:42:33.334Z,45.58
2023-03-25T10:45:01.397Z,45.54
2023-03-25T10:47:34.308Z,45.43
2023-03-25T10:50:04.583Z,45.18
2023-03-25T10:52:32.460Z,45.13
2023-03-25T10:55:00.538Z,43.87
2023-03-25T10:57:30.998Z,44.25
2023-03-25T11:00:07.937Z,44.17
2023-03-25T11:02:35.960Z,43.85
2023-03-25T11:05:08.682Z,43.97
2023-03-25T11:07:38.572Z,44.21
2023-03-25T11:10:12.225Z,44.01
2023-03-25T11:12:43.705Z,44.01
2023-03-25T11:15:14.829Z,44.09
2023-03-25T11:17:43.151Z,44.34
2023-03-25T11:20:21.506Z,43.97
2023-03-25T11:22:52.770Z,43.93
2023-03-25T11:25:25.730Z,43.43
2023-03-25T11:27:57.586Z,43.55
2023-03-25T11:30:27.055Z,43.63
2023-03-25T11:33:00.052Z,43.57
2023-03-25T11:35:32.196Z,44.79
2023-03-25T11:38:02.596Z,43.52
2023-03-25T11:40:31.808Z,42.78
2023-03-25T11:43:01.598Z,43.15
2023-03-25T11:45:35.781Z,42.90
2023-03-25T11:48:12.286Z,42.79
2023-03-25T11:50:52.235Z,42.94
2023-03-25T11:53:21.861Z,42.93
2023-03-25T11:55:53.933Z,43.77
2023-03-25T11:58:27.277Z,43.65
2023-03-25T12:01:02.659Z,43.45
2023-03-25T12:03:33.577Z,43.19
2023-03-25T12:06:15.856Z,43.62
2023-03-25T12:08:49.599Z,44.04
2023-03-25T12:11:23.532Z,43.22
2023-03-25T12:14:17.644Z,42.26
2023-03-25T12:16:52.905Z,42.55
2023-03-25T12:19:29.603Z,42.17
2023-03-25T12:22:21.372Z,40.45
2023-03-25T12:25:13.553Z,39.60
2023-03-25T12:27:54.156Z,40.42
2023-03-25T12:30:37.102Z,40.58
2023-03-25T12:33:18.043Z,40.76
2023-03-25T12:35:50.624Z,40.64
2023-03-25T12:38:34.102Z,40.55
2023-03-25T12:41:16.045Z,41.06
2023-03-25T12:43:58.489Z,41.43
2023-03-25T12:46:42.473Z,41.61
2023-03-25T12:49:25.060Z,41.74
2023-03-25T12:52:04.103Z,42.40
2023-03-25T12:54:54.275Z,42.18
2023-03-25T12:57:38.230Z,42.28
2023-03-25T13:00:18.363Z,42.73
2023-03-25T13:03:08.583Z,42.89
2023-03-25T13:05:41.972Z,42.44
2023-03-25T13:08:17.235Z,42.85
2023-03-25T13:10:50.160Z,43.14
2023-03-25T13:13:24.255Z,43.54
2023-03-25T13:16:05.786Z,43.83
2023-03-25T13:18:38.654Z,45.08
2023-03-25T13:21:14.365Z,44.52
2023-03-25T13:23:45.047Z,43.89
2023-03-25T13:26:18.753Z,42.37
2023-03-25T13:28:49.303Z,42.11
2023-03-25T13:31:20.733Z,42.11
2023-03-25T13:33:54.473Z,41.53
2023-03-25T13:36:29.410Z,39.75
2023-03-25T13:39:00.240Z,40.33
2023-03-25T13:41:35.369Z,39.78
2023-03-25T13:44:08.961Z,39.60
2023-03-25T13:46:39.694Z,36.64
2023-03-25T13:49:17.033Z,37.03
2023-03-25T13:51:45.512Z,37.72
2023-03-25T13:54:19.510Z,37.87
2023-03-25T13:57:45.552Z,36.75
2023-03-25T14:00:36.702Z,36.18
2023-03-25T14:03:37.799Z,37.58
2023-03-25T14:06:36.399Z,37.44
2023-03-25T14:09:30.429Z,37.64
2023-03-25T14:12:04.239Z,37.14
2023-03-25T14:14:36.486Z,37.40
2023-03-25T14:17:07.836Z,37.06
2023-03-25T14:19:38.400Z,36.55
2023-03-25T14:22:14.156Z,35.85
2023-03-25T14:24:42.610Z,35.39
2023-03-25T14:27:19.689Z,35.04
2023-03-25T14:29:55.272Z,34.41
2023-03-25T14:32:35.710Z,34.90
2023-03-25T14:35:41.885Z,33.99
2023-03-25T14:38:49.576Z,34.59
2023-03-25T14:41:17.526Z,35.02
2023-03-25T14:43:53.037Z,35.20
2023-03-25T14:46:23.757Z,35.28
2023-03-25T14:48:55.881Z,35.11
2023-03-25T14:51:47.204Z,34.99
2023-03-25T14:54:29.645Z,35.23
2023-03-25T14:57:03.961Z,36.46
2023-03-25T14:59:36.922Z,36.64
2023-03-25T15:02:10.794Z,36.71
2023-03-25T15:04:41.355Z,36.48
2023-03-25T15:07:14.208Z,37.17
2023-03-25T15:09:50.728Z,36.56
2023-03-25T15:12:22.728Z,35.55
2023-03-25T15:14:56.162Z,35.99
2023-03-25T15:17:43.907Z,35.71
2023-03-25T15:20:35.772Z,36.28
2023-03-25T15:23:33.343Z,37.47
2023-03-25T15:26:03.334Z,37.48
2023-03-25T15:28:51.870Z,37.81
2023-03-25T15:31:38.459Z,38.31
2023-03-25T15:34:16.503Z,39.46
2023-03-25T15:37:06.364Z,39.38
2023-03-25T15:39:47.090Z,39.06
2023-03-25T15:42:47.384Z,38.67
2023-03-25T15:45:41.183Z,38.64
2023-03-25T15:48:28.157Z,37.80
2023-03-25T15:51:07.026Z,37.70
2023-03-25T15:53:53.954Z,37.04
2023-03-25T15:56:24.716Z,37.46
2023-03-25T15:58:57.793Z,37.69
2023-03-25T16:01:30.038Z,36.74
2023-03-25T16:04:01.877Z,35.68
2023-03-25T16:06:32.269Z,34.87
2023-03-25T16:09:02.965Z,34.84
2023-03-25T16:11:31.443Z,34.50
2023-03-25T16:14:04.816Z,34.90
2023-03-25T16:16:36.160Z,35.33
2023-03-25T16:19:06.179Z,35.59
2023-03-25T16:21:34.664Z,35.62
2023-03-25T16:24:07.851Z,36.13
2023-03-25T16:26:38.323Z,36.07
2023-03-25T16:29:16.496Z,36.64
2023-03-25T16:31:53.692Z,36.79
2023-03-25T16:34:22.484Z,36.30
2023-03-25T16:36:53.367Z,35.92
2023-03-25T16:39:24.478Z,36.18
2023-03-25T16:42:00.524Z,36.91
2023-03-25T16:44:28.801Z,36.67
2023-03-25T16:46:56.962Z,36.88
2023-03-25T16:49:30.973Z,37.38
2023-03-25T16:52:02.182Z,37.01
2023-03-25T16:54:37.622Z,37.60
2023-03-25T16:57:08.155Z,37.32
2023-03-25T16:59:37.785Z,37.56
2023-03-25T17:02:23.782Z,37.95
2023-03-25T17:04:55.868Z,38.17
2023-03-25T17:07:27.635Z,38.27
2023-03-25T17:09:59.881Z,38.62
2023-03-25T17:12:30.149Z,38.90
2023-03-25T17:15:06.754Z,38.91
2023-03-25T17:17:41.516Z,39.27
2023-03-25T17:20:18.307Z,39.36
2023-03-25T17:22:59.476Z,39.56
2023-03-25T17:25:32.840Z,39.62
2023-03-25T17:28:08.148Z,39.73
2023-03-25T17:30:43.494Z,40.09
2023-03-25T17:33:15.658Z,40.37
2023-03-25T17:35:46.838Z,40.57
2023-03-25T17:38:22.210Z,41.38
2023-03-25T17:40:59.780Z,41.27
2023-03-25T17:43:29.627Z,41.57
2023-03-25T17:45:57.532Z,41.73
2023-03-25T17:48:26.322Z,41.73
2023-03-25T17:50:55.975Z,42.21
2023-03-25T17:53:24.770Z,42.32
2023-03-25T17:55:52.868Z,42.53
2023-03-25T17:58:23.371Z,42.90
2023-03-25T18:00:52.204Z,42.93
2023-03-25T18:03:23.862Z,43.12
2023-03-25T18:05:53.784Z,43.29
2023-03-25T18:08:22.901Z,43.26
2023-03-25T18:10:51.463Z,43.71
2023-03-25T18:13:21.649Z,43.61
2023-03-25T18:15:51.496Z,43.57
2023-03-25T18:18:21.367Z,43.71
2023-03-25T18:20:49.891Z,43.61
2023-03-25T18:23:18.047Z,43.81
2023-03-25T18:25:46.405Z,44.18
2023-03-25T18:28:15.569Z,44.41
2023-03-25T18:30:46.984Z,44.42
2023-03-25T18:33:16.493Z,44.61
2023-03-25T18:35:44.869Z,44.85
2023-03-25T18:38:19.181Z,45.89
2023-03-25T18:40:48.155Z,46.91
2023-03-25T18:43:16.392Z,48.80
2023-03-25T18:45:44.660Z,48.23
2023-03-25T18:48:13.565Z,48.88
2023-03-25T18:50:48.476Z,49.23
2023-03-25T18:53:16.480Z,49.50
2023-03-25T18:55:45.979Z,50.44
2023-03-25T18:58:17.448Z,51.03
2023-03-25T19:00:46.723Z,52.64
2023-03-25T19:03:15.210Z,53.74
2023-03-25T19:05:45.246Z,54.42
2023-03-25T19:08:18.279Z,54.78
2023-03-25T19:10:47.362Z,54.42
2023-03-25T19:13:16.207Z,54.86
2023-03-25T19:15:44.259Z,55.49
2023-03-25T19:18:16.952Z,55.04
2023-03-25T19:20:47.877Z,55.15
2023-03-25T19:23:17.479Z,55.81
2023-03-25T19:25:46.762Z,56.36
2023-03-25T19:28:16.761Z,56.35
2023-03-25T19:30:46.203Z,56.75
2023-03-25T19:33:15.500Z,56.42
2023-03-25T19:35:49.770Z,56.60
2023-03-25T19:38:22.779Z,56.62
2023-03-25T19:40:52.480Z,57.28
2023-03-25T19:43:20.528Z,56.47
2023-03-25T19:45:48.476Z,56.43
2023-03-25T19:48:16.433Z,56.62
2023-03-25T19:50:44.310Z,56.53
2023-03-25T19:53:12.252Z,55.90
2023-03-25T19:55:44.575Z,56.62
2023-03-25T19:58:12.478Z,56.83
2023-03-25T20:00:40.446Z,56.94
2023-03-25T20:03:08.796Z,56.98
2023-03-25T20:05:37.892Z,56.97
2023-03-25T20:08:06.377Z,57.25
2023-03-25T20:10:34.353Z,57.48
2023-03-25T20:13:04.236Z,57.51
2023-03-25T20:15:32.396Z,57.65
2023-03-25T20:18:00.676Z,57.79
2023-03-25T20:20:28.718Z,58.63
2023-03-25T20:22:56.655Z,57.70
2023-03-25T20:25:24.573Z,57.68
2023-03-25T20:27:52.574Z,56.84
2023-03-25T20:30:22.000Z,57.72
2023-03-25T20:32:50.128Z,57.09
2023-03-25T20:35:19.645Z,57.12
2023-03-25T20:37:51.890Z,56.33
2023-03-25T20:40:25.374Z,56.70
2023-03-25T20:42:58.901Z,56.35
2023-03-25T20:45:30.090Z,56.54
2023-03-25T20:47:59.122Z,56.29
2023-03-25T20:50:27.204Z,55.85
2023-03-25T20:52:55.761Z,55.16
2023-03-25T20:55:23.828Z,55.80
2023-03-25T20:57:51.844Z,56.02
2023-03-25T21:00:19.700Z,56.53
2023-03-25T21:02:50.675Z,56.73
2023-03-25T21:05:18.952Z,56.33
2023-03-25T21:07:46.874Z,57.43
2023-03-25T21:10:14.947Z,57.21
2023-03-25T21:12:44.634Z,56.97
2023-03-25T21:15:14.318Z,57.92
2023-03-25T21:17:42.464Z,58.57
2023-03-25T21:20:12.941Z,58.02
2023-03-25T21:22:44.284Z,58.31
2023-03-25T21:25:16.588Z,58.71
2023-03-25T21:27:45.443Z,58.21
2023-03-25T21:30:14.836Z,58.52
2023-03-25T21:32:43.065Z,58.91
2023-03-25T21:35:12.774Z,58.60
2023-03-25T21:37:40.815Z,59.83
2023-03-25T21:40:11.538Z,59.36
2023-03-25T21:42:41.268Z,59.23
2023-03-25T21:45:11.441Z,59.48
2023-03-25T21:47:39.352Z,59.12
2023-03-25T21:50:09.917Z,58.88
2023-03-25T21:52:43.459Z,58.87
2023-03-25T21:55:12.585Z,58.59
2023-03-25T21:57:44.282Z,58.19
2023-03-25T22:00:16.779Z,59.03
2023-03-25T22:02:46.554Z,58.13
2023-03-25T22:05:16.397Z,58.24
2023-03-25T22:07:45.717Z,58.62
2023-03-25T22:10:13.681Z,58.37
2023-03-25T22:12:41.652Z,58.36
2023-03-25T22:15:10.941Z,58.28
2023-03-25T22:17:38.842Z,58.73
2023-03-25T22:20:08.669Z,58.27
2023-03-25T22:22:36.723Z,58.68
2023-03-25T22:25:06.904Z,58.68
2023-03-25T22:27:34.881Z,58.28
2023-03-25T22:30:03.022Z,57.78
2023-03-25T22:32:30.982Z,57.89
2023-03-25T22:34:58.861Z,57.79
2023-03-25T22:37:26.937Z,57.21
2023-03-25T22:39:54.918Z,57.24
2023-03-25T22:42:25.800Z,56.92
2023-03-25T22:44:53.732Z,56.46
2023-03-25T22:47:21.705Z,57.28
2023-03-25T22:49:52.143Z,57.01
2023-03-25T22:52:20.040Z,56.12
2023-03-25T22:54:48.020Z,57.03
2023-03-25T22:57:16.239Z,56.94
2023-03-25T22:59:45.456Z,56.13
2023-03-25T23:02:14.601Z,56.65
2023-03-25T23:04:42.525Z,56.91
2023-03-25T23:07:10.479Z,56.50
2023-03-25T23:09:42.132Z,56.76
2023-03-25T23:12:11.395Z,56.50
2023-03-25T23:14:40.566Z,56.37
2023-03-25T23:17:12.041Z,56.62
2023-03-25T23:19:40.524Z,56.73
2023-03-25T23:22:09.075Z,56.03
2023-03-25T23:24:37.981Z,56.62
2023-03-25T23:27:08.043Z,56.08
2023-03-25T23:29:37.310Z,56.75
2023-03-25T23:32:07.164Z,56.05
2023-03-25T23:34:38.305Z,56.47
2023-03-25T23:37:09.084Z,56.94
2023-03-25T23:39:40.268Z,56.33
2023-03-25T23:42:08.235Z,56.49
2023-03-25T23:44:36.356Z,56.82
2023-03-25T23:47:04.824Z,56.29
2023-03-25T23:49:33.917Z,56.39
2023-03-25T23:52:03.227Z,56.79
2023-03-25T23:54:31.193Z,56.34
2023-03-25T23:56:59.298Z,56.52
2023-03-25T23:59:27.139Z,55.86
